sensor_id;sensor_type;location;lat;lon;timestamp;pressure;altitude;pressure_sealevel;temperature;humidity
6853;BME280;3465;42.144;24.722;2022-12-10T00:01:58;144919.53;;;8.00;100.00
6853;BME280;3465;42.144;24.722;2022-12-10T00:04:23;144918.25;;;8.00;100.00
6853;BME280;3465;42.144;24.722;2022-12-10T00:06:49;144879.53;;;7.84;100.00
6853;BME280;3465;42.144;24.722;2022-12-10T00:09:16;144854.53;;;7.74;100.00
6853;BME280;3465;42.144;24.722;2022-12-10T00:11:43;144888.28;;;7.88;100.00
6853;BME280;3465;42.144;24.722;2022-12-10T00:14:09;144877.06;;;7.83;100.00
6853;BME280;3465;42.144;24.722;2022-12-10T00:16:35;144890.78;;;7.89;100.00
6853;BME280;3465;42.144;24.722;2022-12-10T00:19:01;144865.81;;;7.79;100.00
6853;BME280;3465;42.144;24.722;2022-12-10T00:21:31;144904.53;;;7.94;100.00
6853;BME280;3465;42.144;24.722;2022-12-10T00:23:57;144900.78;;;7.93;100.00
6853;BME280;3465;42.144;24.722;2022-12-10T00:26:28;144897.03;;;7.91;100.00
6853;BME280;3465;42.144;24.722;2022-12-10T00:28:54;144917.03;;;7.99;100.00
6853;BME280;3465;42.144;24.722;2022-12-10T00:31:26;144872.06;;;7.81;100.00
6853;BME280;3465;42.144;24.722;2022-12-10T00:33:56;144890.78;;;7.89;100.00
6853;BME280;3465;42.144;24.722;2022-12-10T00:36:25;144913.28;;;7.98;100.00
6853;BME280;3465;42.144;24.722;2022-12-10T00:38:51;144905.81;;;7.95;100.00
6853;BME280;3465;42.144;24.722;2022-12-10T00:41:17;144904.53;;;7.94;100.00
6853;BME280;3465;42.144;24.722;2022-12-10T00:43:43;144915.78;;;7.99;100.00
6853;BME280;3465;42.144;24.722;2022-12-10T00:46:09;144894.53;;;7.90;100.00
6853;BME280;3465;42.144;24.722;2022-12-10T00:48:34;144884.53;;;7.86;100.00
6853;BME280;3465;42.144;24.722;2022-12-10T00:51:03;144900.78;;;7.93;100.00
6853;BME280;3465;42.144;24.722;2022-12-10T00:53:30;144880.81;;;7.85;100.00
6853;BME280;3465;42.144;24.722;2022-12-10T00:55:56;144887.03;;;7.87;100.00
6853;BME280;3465;42.144;24.722;2022-12-10T00:58:23;144854.53;;;7.74;100.00
6853;BME280;3465;42.144;24.722;2022-12-10T01:00:48;144779.63;;;7.44;100.00
6853;BME280;3465;42.144;24.722;2022-12-10T01:03:15;144897.03;;;7.91;100.00
6853;BME280;3465;42.144;24.722;2022-12-10T01:05:40;144897.03;;;7.91;100.00
6853;BME280;3465;42.144;24.722;2022-12-10T01:08:06;144898.25;;;7.92;100.00
6853;BME280;3465;42.144;24.722;2022-12-10T01:10:31;144895.78;;;7.91;100.00
6853;BME280;3465;42.144;24.722;2022-12-10T01:12:57;144885.81;;;7.87;100.00
6853;BME280;3465;42.144;24.722;2022-12-10T01:15:22;144903.28;;;7.94;100.00
6853;BME280;3465;42.144;24.722;2022-12-10T01:17:48;144898.25;;;7.92;100.00
6853;BME280;3465;42.144;24.722;2022-12-10T01:20:13;144884.53;;;7.86;100.00
6853;BME280;3465;42.144;24.722;2022-12-10T01:22:39;144880.81;;;7.85;100.00
6853;BME280;3465;42.144;24.722;2022-12-10T01:25:05;144855.81;;;7.75;100.00
6853;BME280;3465;42.144;24.722;2022-12-10T01:27:30;144873.31;;;7.82;100.00
6853;BME280;3465;42.144;24.722;2022-12-10T01:29:56;144838.31;;;7.68;100.00
6853;BME280;3465;42.144;24.722;2022-12-10T01:32:21;144852.06;;;7.73;100.00
6853;BME280;3465;42.144;24.722;2022-12-10T01:34:47;144887.03;;;7.87;100.00
6853;BME280;3465;42.144;24.722;2022-12-10T01:37:12;144882.03;;;7.85;100.00
6853;BME280;3465;42.144;24.722;2022-12-10T01:39:38;144890.78;;;7.89;100.00
6853;BME280;3465;42.144;24.722;2022-12-10T01:42:04;144874.53;;;7.82;100.00
6853;BME280;3465;42.144;24.722;2022-12-10T01:46:58;144869.56;;;7.80;100.00
6853;BME280;3465;42.144;24.722;2022-12-10T01:49:38;144883.28;;;7.86;100.00
6853;BME280;3465;42.144;24.722;2022-12-10T01:52:06;144874.53;;;7.82;100.00
6853;BME280;3465;42.144;24.722;2022-12-10T01:54:44;144888.28;;;7.88;100.00
6853;BME280;3465;42.144;24.722;2022-12-10T01:57:16;144879.53;;;7.84;100.00
6853;BME280;3465;42.144;24.722;2022-12-10T01:59:43;144870.78;;;7.81;100.00
6853;BME280;3465;42.144;24.722;2022-12-10T02:15:34;144853.31;;;7.74;100.00
6853;BME280;3465;42.144;24.722;2022-12-10T02:18:09;144853.31;;;7.74;100.00
6853;BME280;3465;42.144;24.722;2022-12-10T02:20:49;144833.34;;;7.66;100.00
6853;BME280;3465;42.144;24.722;2022-12-10T02:23:28;144835.81;;;7.67;100.00
6853;BME280;3465;42.144;24.722;2022-12-10T02:29:01;144863.28;;;7.78;100.00
6853;BME280;3465;42.144;24.722;2022-12-10T02:31:31;144859.56;;;7.76;100.00
6853;BME280;3465;42.144;24.722;2022-12-10T02:33:59;144849.59;;;7.72;100.00
6853;BME280;3465;42.144;24.722;2022-12-10T02:36:28;144828.34;;;7.64;100.00
6853;BME280;3465;42.144;24.722;2022-12-10T02:38:56;144847.06;;;7.71;100.00
6853;BME280;3465;42.144;24.722;2022-12-10T02:41:27;144840.84;;;7.69;100.00
6853;BME280;3465;42.144;24.722;2022-12-10T02:43:57;144868.31;;;7.80;100.00
6853;BME280;3465;42.144;24.722;2022-12-10T02:46:25;144889.56;;;7.88;100.00
6853;BME280;3465;42.144;24.722;2022-12-10T02:48:54;144865.81;;;7.79;100.00
6853;BME280;3465;42.144;24.722;2022-12-10T02:51:20;144860.81;;;7.77;100.00
6853;BME280;3465;42.144;24.722;2022-12-10T02:53:45;144880.81;;;7.85;100.00
6853;BME280;3465;42.144;24.722;2022-12-10T02:56:21;144865.81;;;7.79;100.00
6853;BME280;3465;42.144;24.722;2022-12-10T03:04:10;144848.31;;;7.72;100.00
6853;BME280;3465;42.144;24.722;2022-12-10T03:06:42;144860.81;;;7.77;100.00
6853;BME280;3465;42.144;24.722;2022-12-10T03:09:27;144874.53;;;7.82;100.00
6853;BME280;3465;42.144;24.722;2022-12-10T03:11:59;144872.06;;;7.81;100.00
6853;BME280;3465;42.144;24.722;2022-12-10T03:14:29;144860.81;;;7.77;100.00
6853;BME280;3465;42.144;24.722;2022-12-10T03:16:58;144842.06;;;7.69;100.00
6853;BME280;3465;42.144;24.722;2022-12-10T03:19:31;144833.34;;;7.66;100.00
6853;BME280;3465;42.144;24.722;2022-12-10T03:21:59;144824.59;;;7.62;100.00
6853;BME280;3465;42.144;24.722;2022-12-10T03:24:27;144837.09;;;7.67;100.00
6853;BME280;3465;42.144;24.722;2022-12-10T03:26:53;144824.59;;;7.62;100.00
6853;BME280;3465;42.144;24.722;2022-12-10T03:29:22;144810.84;;;7.57;100.00
6853;BME280;3465;42.144;24.722;2022-12-10T03:31:51;144853.31;;;7.74;100.00
6853;BME280;3465;42.144;24.722;2022-12-10T03:34:18;144850.78;;;7.73;100.00
6853;BME280;3465;42.144;24.722;2022-12-10T03:36:44;144850.78;;;7.73;100.00
6853;BME280;3465;42.144;24.722;2022-12-10T03:39:10;144818.31;;;7.60;100.00
6853;BME280;3465;42.144;24.722;2022-12-10T03:41:36;144825.84;;;7.63;100.00
6853;BME280;3465;42.144;24.722;2022-12-10T03:44:02;144832.06;;;7.65;100.00
6853;BME280;3465;42.144;24.722;2022-12-10T03:46:29;144828.34;;;7.64;100.00
6853;BME280;3465;42.144;24.722;2022-12-10T03:48:56;144827.06;;;7.63;100.00
6853;BME280;3465;42.144;24.722;2022-12-10T03:51:22;144813.34;;;7.58;100.00
6853;BME280;3465;42.144;24.722;2022-12-10T03:53:48;144805.88;;;7.55;100.00
6853;BME280;3465;42.144;24.722;2022-12-10T03:56:17;144838.31;;;7.68;100.00
6853;BME280;3465;42.144;24.722;2022-12-10T03:58:43;144842.06;;;7.69;100.00
6853;BME280;3465;42.144;24.722;2022-12-10T04:01:09;144819.59;;;7.60;100.00
6853;BME280;3465;42.144;24.722;2022-12-10T04:03:39;144837.09;;;7.67;100.00
6853;BME280;3465;42.144;24.722;2022-12-10T04:06:08;144815.84;;;7.59;100.00
6853;BME280;3465;42.144;24.722;2022-12-10T04:08:34;144823.31;;;7.62;100.00
6853;BME280;3465;42.144;24.722;2022-12-10T04:11:04;144799.59;;;7.52;100.00
6853;BME280;3465;42.144;24.722;2022-12-10T04:13:34;144827.06;;;7.63;100.00
6853;BME280;3465;42.144;24.722;2022-12-10T04:16:19;144834.56;;;7.66;100.00
6853;BME280;3465;42.144;24.722;2022-12-10T04:18:52;144845.84;;;7.71;100.00
6853;BME280;3465;42.144;24.722;2022-12-10T04:21:17;144845.84;;;7.71;100.00
6853;BME280;3465;42.144;24.722;2022-12-10T04:24:01;144804.59;;;7.54;100.00
6853;BME280;3465;42.144;24.722;2022-12-10T04:26:45;144835.81;;;7.67;100.00
6853;BME280;3465;42.144;24.722;2022-12-10T04:29:17;144809.63;;;7.56;100.00
6853;BME280;3465;42.144;24.722;2022-12-10T04:31:43;144849.59;;;7.72;100.00
6853;BME280;3465;42.144;24.722;2022-12-10T04:34:08;144845.84;;;7.71;100.00
6853;BME280;3465;42.144;24.722;2022-12-10T04:36:34;144817.09;;;7.59;100.00
6853;BME280;3465;42.144;24.722;2022-12-10T04:38:59;144837.09;;;7.67;100.00
6853;BME280;3465;42.144;24.722;2022-12-10T04:41:25;144843.31;;;7.70;100.00
6853;BME280;3465;42.144;24.722;2022-12-10T04:43:52;144837.09;;;7.67;100.00
6853;BME280;3465;42.144;24.722;2022-12-10T04:46:20;144827.06;;;7.63;100.00
6853;BME280;3465;42.144;24.722;2022-12-10T04:48:45;144843.31;;;7.70;100.00
6853;BME280;3465;42.144;24.722;2022-12-10T04:51:11;144789.63;;;7.48;100.00
6853;BME280;3465;42.144;24.722;2022-12-10T04:53:36;144780.88;;;7.45;100.00
6853;BME280;3465;42.144;24.722;2022-12-10T04:56:01;144817.09;;;7.59;100.00
6853;BME280;3465;42.144;24.722;2022-12-10T04:58:30;144835.81;;;7.67;100.00
6853;BME280;3465;42.144;24.722;2022-12-10T05:01:07;144838.31;;;7.68;100.00
6853;BME280;3465;42.144;24.722;2022-12-10T05:03:34;144805.88;;;7.55;100.00
6853;BME280;3465;42.144;24.722;2022-12-10T05:06:13;144808.34;;;7.56;100.00
6853;BME280;3465;42.144;24.722;2022-12-10T05:08:40;144808.34;;;7.56;100.00
6853;BME280;3465;42.144;24.722;2022-12-10T05:11:09;144814.56;;;7.58;100.00
6853;BME280;3465;42.144;24.722;2022-12-10T05:13:35;144799.59;;;7.52;100.00
6853;BME280;3465;42.144;24.722;2022-12-10T05:16:02;144798.34;;;7.52;100.00
6853;BME280;3465;42.144;24.722;2022-12-10T05:18:28;144815.84;;;7.59;100.00
6853;BME280;3465;42.144;24.722;2022-12-10T05:20:53;144814.56;;;7.58;100.00
6853;BME280;3465;42.144;24.722;2022-12-10T05:23:18;144820.84;;;7.61;100.00
6853;BME280;3465;42.144;24.722;2022-12-10T05:26:22;144770.88;;;7.41;100.00
6853;BME280;3465;42.144;24.722;2022-12-10T05:28:51;144798.34;;;7.52;100.00
6853;BME280;3465;42.144;24.722;2022-12-10T05:31:20;144777.13;;;7.43;100.00
6853;BME280;3465;42.144;24.722;2022-12-10T05:33:46;144790.84;;;7.49;100.00
6853;BME280;3465;42.144;24.722;2022-12-10T05:36:13;144767.13;;;7.39;100.00
6853;BME280;3465;42.144;24.722;2022-12-10T05:38:40;144772.13;;;7.41;100.00
6853;BME280;3465;42.144;24.722;2022-12-10T05:41:29;144763.38;;;7.38;100.00
6853;BME280;3465;42.144;24.722;2022-12-10T05:43:54;144794.59;;;7.50;100.00
6853;BME280;3465;42.144;24.722;2022-12-10T05:46:22;144818.31;;;7.60;100.00
6853;BME280;3465;42.144;24.722;2022-12-10T05:48:49;144779.63;;;7.44;100.00
6853;BME280;3465;42.144;24.722;2022-12-10T05:51:21;144818.31;;;7.60;100.00
6853;BME280;3465;42.144;24.722;2022-12-10T05:53:47;144819.59;;;7.60;100.00
6853;BME280;3465;42.144;24.722;2022-12-10T05:56:19;144825.84;;;7.63;100.00
6853;BME280;3465;42.144;24.722;2022-12-10T05:58:46;144833.34;;;7.66;100.00
6853;BME280;3465;42.144;24.722;2022-12-10T06:01:20;144824.59;;;7.62;100.00
6853;BME280;3465;42.144;24.722;2022-12-10T06:03:46;144845.84;;;7.71;100.00
6853;BME280;3465;42.144;24.722;2022-12-10T06:06:12;144807.09;;;7.55;100.00
6853;BME280;3465;42.144;24.722;2022-12-10T06:08:38;144822.06;;;7.61;100.00
6853;BME280;3465;42.144;24.722;2022-12-10T06:11:06;144832.06;;;7.65;100.00
6853;BME280;3465;42.144;24.722;2022-12-10T06:13:31;144849.59;;;7.72;100.00
6853;BME280;3465;42.144;24.722;2022-12-10T06:15:57;144847.06;;;7.71;100.00
6853;BME280;3465;42.144;24.722;2022-12-10T06:18:22;144865.81;;;7.79;100.00
6853;BME280;3465;42.144;24.722;2022-12-10T06:20:48;144863.28;;;7.78;100.00
6853;BME280;3465;42.144;24.722;2022-12-10T06:23:13;144868.31;;;7.80;100.00
6853;BME280;3465;42.144;24.722;2022-12-10T06:25:39;144882.03;;;7.85;100.00
6853;BME280;3465;42.144;24.722;2022-12-10T06:28:05;144897.03;;;7.91;100.00
6853;BME280;3465;42.144;24.722;2022-12-10T06:30:31;144908.28;;;7.96;100.00
6853;BME280;3465;42.144;24.722;2022-12-10T06:32:57;144909.56;;;7.96;100.00
6853;BME280;3465;42.144;24.722;2022-12-10T06:35:22;144908.28;;;7.96;100.00
6853;BME280;3465;42.144;24.722;2022-12-10T06:37:49;144874.53;;;7.82;100.00
6853;BME280;3465;42.144;24.722;2022-12-10T06:40:14;144909.56;;;7.96;100.00
6853;BME280;3465;42.144;24.722;2022-12-10T06:42:40;144913.28;;;7.98;100.00
6853;BME280;3465;42.144;24.722;2022-12-10T06:45:06;144923.25;;;8.02;100.00
6853;BME280;3465;42.144;24.722;2022-12-10T06:47:31;144937.03;;;8.07;100.00
6853;BME280;3465;42.144;24.722;2022-12-10T06:49:57;144915.78;;;7.99;100.00
6853;BME280;3465;42.144;24.722;2022-12-10T06:52:22;144945.78;;;8.11;100.00
6853;BME280;3465;42.144;24.722;2022-12-10T06:54:47;144940.78;;;8.09;100.00
6853;BME280;3465;42.144;24.722;2022-12-10T06:57:13;144975.81;;;8.23;100.00
6853;BME280;3465;42.144;24.722;2022-12-10T06:59:38;144950.75;;;8.13;100.00
6853;BME280;3465;42.144;24.722;2022-12-10T07:02:04;144910.75;;;7.97;100.00
6853;BME280;3465;42.144;24.722;2022-12-10T07:04:29;144965.78;;;8.19;100.00
6853;BME280;3465;42.144;24.722;2022-12-10T07:06:54;144955.75;;;8.15;100.00
6853;BME280;3465;42.144;24.722;2022-12-10T07:09:20;144968.25;;;8.20;100.00
6853;BME280;3465;42.144;24.722;2022-12-10T07:11:45;144965.78;;;8.19;100.00
6853;BME280;3465;42.144;24.722;2022-12-10T07:14:13;144960.78;;;8.17;100.00
6853;BME280;3465;42.144;24.722;2022-12-10T07:16:39;144985.81;;;8.27;100.00
6853;BME280;3465;42.144;24.722;2022-12-10T07:19:05;144982.03;;;8.25;100.00
6853;BME280;3465;42.144;24.722;2022-12-10T07:21:33;145023.28;;;8.42;100.00
6853;BME280;3465;42.144;24.722;2022-12-10T07:24:16;145055.78;;;8.55;100.00
6853;BME280;3465;42.144;24.722;2022-12-10T07:26:43;145065.81;;;8.59;100.00
6853;BME280;3465;42.144;24.722;2022-12-10T07:29:13;145072.03;;;8.61;100.00
6853;BME280;3465;42.144;24.722;2022-12-10T07:31:39;145097.06;;;8.72;100.00
6853;BME280;3465;42.144;24.722;2022-12-10T07:34:05;145085.81;;;8.67;100.00
6853;BME280;3465;42.144;24.722;2022-12-10T07:36:30;145105.81;;;8.75;100.00
6853;BME280;3465;42.144;24.722;2022-12-10T07:38:55;145124.56;;;8.83;100.00
6853;BME280;3465;42.144;24.722;2022-12-10T07:41:22;145105.81;;;8.75;100.00
6853;BME280;3465;42.144;24.722;2022-12-10T07:43:48;145082.03;;;8.65;100.00
6853;BME280;3465;42.144;24.722;2022-12-10T07:46:20;145055.78;;;8.55;100.00
6853;BME280;3465;42.144;24.722;2022-12-10T07:48:47;145075.78;;;8.63;100.00
6853;BME280;3465;42.144;24.722;2022-12-10T07:51:13;145093.31;;;8.70;100.00
6853;BME280;3465;42.144;24.722;2022-12-10T07:53:38;145110.78;;;8.77;100.00
6853;BME280;3465;42.144;24.722;2022-12-10T07:56:05;145099.53;;;8.73;100.00
6853;BME280;3465;42.144;24.722;2022-12-10T07:58:31;145128.31;;;8.84;100.00
6853;BME280;3465;42.144;24.722;2022-12-10T08:00:57;145088.31;;;8.68;100.00
6853;BME280;3465;42.144;24.722;2022-12-10T08:03:23;145099.53;;;8.73;100.00
6853;BME280;3465;42.144;24.722;2022-12-10T08:05:59;145088.31;;;8.68;100.00
6853;BME280;3465;42.144;24.722;2022-12-10T08:08:25;144984.56;;;8.26;100.00
6853;BME280;3465;42.144;24.722;2022-12-10T08:10:50;145072.03;;;8.61;100.00
6853;BME280;3465;42.144;24.722;2022-12-10T08:13:15;145054.53;;;8.54;100.00
6853;BME280;3465;42.144;24.722;2022-12-10T08:15:41;145068.28;;;8.60;100.00
6853;BME280;3465;42.144;24.722;2022-12-10T08:18:06;145068.28;;;8.60;100.00
6853;BME280;3465;42.144;24.722;2022-12-10T08:20:31;145078.28;;;8.64;100.00
6853;BME280;3465;42.144;24.722;2022-12-10T08:22:57;145095.78;;;8.71;100.00
6853;BME280;3465;42.144;24.722;2022-12-10T08:25:23;145097.06;;;8.72;100.00
6853;BME280;3465;42.144;24.722;2022-12-10T08:27:49;145087.03;;;8.67;100.00
6853;BME280;3465;42.144;24.722;2022-12-10T08:30:14;145079.53;;;8.64;100.00
6853;BME280;3465;42.144;24.722;2022-12-10T08:32:40;145082.03;;;8.65;100.00
6853;BME280;3465;42.144;24.722;2022-12-10T08:35:06;145105.81;;;8.75;100.00
6853;BME280;3465;42.144;24.722;2022-12-10T08:37:32;145117.06;;;8.80;100.00
6853;BME280;3465;42.144;24.722;2022-12-10T08:39:57;145117.06;;;8.80;100.00
6853;BME280;3465;42.144;24.722;2022-12-10T08:42:23;145148.31;;;8.92;100.00
6853;BME280;3465;42.144;24.722;2022-12-10T08:44:51;145175.81;;;9.03;100.00
6853;BME280;3465;42.144;24.722;2022-12-10T08:47:16;145172.06;;;9.02;100.00
6853;BME280;3465;42.144;24.722;2022-12-10T08:49:42;145158.28;;;8.96;100.00
6853;BME280;3465;42.144;24.722;2022-12-10T08:52:07;145215.84;;;9.19;100.00
6853;BME280;3465;42.144;24.722;2022-12-10T08:54:33;145267.13;;;9.40;100.00
6853;BME280;3465;42.144;24.722;2022-12-10T08:56:58;145323.41;;;9.62;100.00
6853;BME280;3465;42.144;24.722;2022-12-10T08:59:24;145363.47;;;9.78;100.00
6853;BME280;3465;42.144;24.722;2022-12-10T09:01:51;145414.75;;;9.99;100.00
6853;BME280;3465;42.144;24.722;2022-12-10T09:04:18;145419.78;;;10.01;100.00
6853;BME280;3465;42.144;24.722;2022-12-10T09:06:43;145463.66;;;10.19;100.00
6853;BME280;3465;42.144;24.722;2022-12-10T09:09:09;145506.25;;;10.36;100.00
6853;BME280;3465;42.144;24.722;2022-12-10T09:11:37;145522.47;;;10.42;100.00
6853;BME280;3465;42.144;24.722;2022-12-10T09:14:02;145494.94;;;10.31;100.00
6853;BME280;3465;42.144;24.722;2022-12-10T09:16:30;145576.34;;;10.64;100.00
6853;BME280;3465;42.144;24.722;2022-12-10T09:18:56;145616.41;;;10.80;100.00
6853;BME280;3465;42.144;24.722;2022-12-10T09:21:22;145654.00;;;10.95;100.00
6853;BME280;3465;42.144;24.722;2022-12-10T09:23:49;145691.56;;;11.10;100.00
6853;BME280;3465;42.144;24.722;2022-12-10T09:26:16;145670.31;;;11.01;100.00
6853;BME280;3465;42.144;24.722;2022-12-10T09:28:42;145661.53;;;10.98;100.00
6853;BME280;3465;42.144;24.722;2022-12-10T09:31:09;145735.41;;;11.27;100.00
6853;BME280;3465;42.144;24.722;2022-12-10T09:33:35;145742.94;;;11.30;100.00
6853;BME280;3465;42.144;24.722;2022-12-10T09:36:06;145724.16;;;11.23;100.00
6853;BME280;3465;42.144;24.722;2022-12-10T09:38:39;145725.41;;;11.23;100.00
6853;BME280;3465;42.144;24.722;2022-12-10T09:44:05;145760.50;;;11.37;100.00
6853;BME280;3465;42.144;24.722;2022-12-10T09:46:51;145729.19;;;11.25;100.00
6853;BME280;3465;42.144;24.722;2022-12-10T09:49:27;145810.66;;;11.57;100.00
6853;BME280;3465;42.144;24.722;2022-12-10T09:52:01;145827.00;;;11.64;100.00
6853;BME280;3465;42.144;24.722;2022-12-10T09:54:37;145868.34;;;11.81;100.00
6853;BME280;3465;42.144;24.722;2022-12-10T09:57:05;145855.78;;;11.76;100.00
6853;BME280;3465;42.144;24.722;2022-12-10T09:59:38;145902.19;;;11.94;100.00
6853;BME280;3465;42.144;24.722;2022-12-10T10:04:42;145972.41;;;12.22;100.00
6853;BME280;3465;42.144;24.722;2022-12-10T10:07:12;145992.47;;;12.30;100.00
6853;BME280;3465;42.144;24.722;2022-12-10T10:09:43;146001.25;;;12.34;100.00
6853;BME280;3465;42.144;24.722;2022-12-10T10:12:15;145944.81;;;12.11;100.00
6853;BME280;3465;42.144;24.722;2022-12-10T10:14:43;145875.84;;;11.84;100.00
6853;BME280;3465;42.144;24.722;2022-12-10T10:17:47;145879.59;;;11.85;100.00
6853;BME280;3465;42.144;24.722;2022-12-10T10:20:15;145880.88;;;11.86;100.00
6853;BME280;3465;42.144;24.722;2022-12-10T10:22:40;145877.13;;;11.84;100.00
6853;BME280;3465;42.144;24.722;2022-12-10T10:25:13;145878.38;;;11.85;100.00
6853;BME280;3465;42.144;24.722;2022-12-10T10:27:39;145835.72;;;11.68;100.00
6853;BME280;3465;42.144;24.722;2022-12-10T10:30:06;145811.88;;;11.58;100.00
6853;BME280;3465;42.144;24.722;2022-12-10T10:35:01;145719.13;;;11.21;100.00
6853;BME280;3465;42.144;24.722;2022-12-10T10:37:29;145710.41;;;11.17;100.00
6853;BME280;3465;42.144;24.722;2022-12-10T10:39:57;145747.94;;;11.32;100.00
6853;BME280;3465;42.144;24.722;2022-12-10T10:42:43;145770.53;;;11.41;100.00
6853;BME280;3465;42.144;24.722;2022-12-10T10:45:34;145844.50;;;11.71;100.00
6853;BME280;3465;42.144;24.722;2022-12-10T10:48:21;145842.03;;;11.70;100.00
6853;BME280;3465;42.144;24.722;2022-12-10T10:50:55;145882.13;;;11.86;100.00
6853;BME280;3465;42.144;24.722;2022-12-10T10:53:33;145956.09;;;12.16;100.00
6853;BME280;3465;42.144;24.722;2022-12-10T10:56:25;145963.59;;;12.19;100.00
6853;BME280;3465;42.144;24.722;2022-12-10T10:59:04;145971.19;;;12.22;100.00
6853;BME280;3465;42.144;24.722;2022-12-10T11:04:15;146002.53;;;12.34;100.00
6853;BME280;3465;42.144;24.722;2022-12-10T11:06:42;146055.22;;;12.55;100.00
6853;BME280;3465;42.144;24.722;2022-12-10T11:09:07;146055.22;;;12.55;100.00
6853;BME280;3465;42.144;24.722;2022-12-10T11:11:35;146012.53;;;12.38;100.00
6853;BME280;3465;42.144;24.722;2022-12-10T11:16:48;145942.31;;;12.10;100.00
6853;BME280;3465;42.144;24.722;2022-12-10T11:19:23;145927.28;;;12.04;100.00
6853;BME280;3465;42.144;24.722;2022-12-10T11:21:49;145948.56;;;12.13;100.00
6853;BME280;3465;42.144;24.722;2022-12-10T11:24:18;145937.28;;;12.08;100.00
6853;BME280;3465;42.144;24.722;2022-12-10T11:26:57;145928.50;;;12.05;100.00
6853;BME280;3465;42.144;24.722;2022-12-10T11:29:59;145924.75;;;12.03;100.00
6853;BME280;3465;42.144;24.722;2022-12-10T11:35:21;145934.81;;;12.07;100.00
6853;BME280;3465;42.144;24.722;2022-12-10T11:44:18;145982.44;;;12.26;100.00
6853;BME280;3465;42.144;24.722;2022-12-10T11:49:53;145921.00;;;12.02;100.00
6853;BME280;3465;42.144;24.722;2022-12-10T11:55:17;145880.88;;;11.86;100.00
6853;BME280;3465;42.144;24.722;2022-12-10T11:57:49;145889.66;;;11.89;100.00
6853;BME280;3465;42.144;24.722;2022-12-10T12:00:39;145884.63;;;11.87;100.00
6853;BME280;3465;42.144;24.722;2022-12-10T12:17:16;145928.50;;;12.05;100.00
6853;BME280;3465;42.144;24.722;2022-12-10T12:22:24;145909.72;;;11.97;100.00
6853;BME280;3465;42.144;24.722;2022-12-10T12:24:59;145894.69;;;11.91;100.00
6853;BME280;3465;42.144;24.722;2022-12-10T12:27:36;145800.59;;;11.53;100.00
6853;BME280;3465;42.144;24.722;2022-12-10T12:30:15;145884.63;;;11.87;100.00
6853;BME280;3465;42.144;24.722;2022-12-10T12:35:40;145872.09;;;11.82;100.00
6853;BME280;3465;42.144;24.722;2022-12-10T12:38:30;145864.56;;;11.79;100.00
6853;BME280;3465;42.144;24.722;2022-12-10T12:41:15;145847.06;;;11.72;100.00
6853;BME280;3465;42.144;24.722;2022-12-10T12:43:48;145867.09;;;11.80;100.00
6853;BME280;3465;42.144;24.722;2022-12-10T12:46:26;145867.09;;;11.80;100.00
6853;BME280;3465;42.144;24.722;2022-12-10T12:54:22;145932.25;;;12.06;100.00
6853;BME280;3465;42.144;24.722;2022-12-10T13:00:15;145927.28;;;12.04;100.00
6853;BME280;3465;42.144;24.722;2022-12-10T13:03:17;145957.34;;;12.16;100.00
6853;BME280;3465;42.144;24.722;2022-12-10T13:05:44;145964.88;;;12.19;100.00
6853;BME280;3465;42.144;24.722;2022-12-10T13:08:29;145968.63;;;12.21;100.00
6853;BME280;3465;42.144;24.722;2022-12-10T13:21:58;145879.59;;;11.85;100.00
6853;BME280;3465;42.144;24.722;2022-12-10T13:29:28;145810.66;;;11.57;100.00
6853;BME280;3465;42.144;24.722;2022-12-10T13:32:21;145810.66;;;11.57;100.00
6853;BME280;3465;42.144;24.722;2022-12-10T13:37:34;145821.91;;;11.62;100.00
6853;BME280;3465;42.144;24.722;2022-12-10T13:42:36;145790.59;;;11.49;100.00
6853;BME280;3465;42.144;24.722;2022-12-10T13:53:50;145760.50;;;11.37;100.00
6853;BME280;3465;42.144;24.722;2022-12-10T13:56:35;145764.25;;;11.39;100.00
6853;BME280;3465;42.144;24.722;2022-12-10T14:09:25;145750.50;;;11.33;100.00
6853;BME280;3465;42.144;24.722;2022-12-10T14:11:36;145761.75;;;11.38;100.00
6853;BME280;3465;42.144;24.722;2022-12-10T14:14:04;145741.72;;;11.30;100.00
6853;BME280;3465;42.144;24.722;2022-12-10T14:16:32;145730.44;;;11.25;100.00
6853;BME280;3465;42.144;24.722;2022-12-10T14:19:04;145725.41;;;11.23;100.00
6853;BME280;3465;42.144;24.722;2022-12-10T14:21:39;145689.06;;;11.09;100.00
6853;BME280;3465;42.144;24.722;2022-12-10T14:24:31;145674.06;;;11.03;100.00
6853;BME280;3465;42.144;24.722;2022-12-10T14:27:12;145702.84;;;11.14;100.00
6853;BME280;3465;42.144;24.722;2022-12-10T14:29:42;145682.78;;;11.06;100.00
6853;BME280;3465;42.144;24.722;2022-12-10T14:32:13;145676.53;;;11.04;100.00
6853;BME280;3465;42.144;24.722;2022-12-10T14:34:40;145667.78;;;11.00;100.00
6853;BME280;3465;42.144;24.722;2022-12-10T14:37:06;145631.44;;;10.86;100.00
6853;BME280;3465;42.144;24.722;2022-12-10T14:39:38;145641.47;;;10.90;100.00
6853;BME280;3465;42.144;24.722;2022-12-10T14:42:06;145641.47;;;10.90;100.00
6853;BME280;3465;42.144;24.722;2022-12-10T14:44:39;145642.69;;;10.90;100.00
6853;BME280;3465;42.144;24.722;2022-12-10T14:49:40;145597.66;;;10.72;100.00
6853;BME280;3465;42.144;24.722;2022-12-10T14:52:24;145595.09;;;10.71;100.00
6853;BME280;3465;42.144;24.722;2022-12-10T14:54:50;145603.88;;;10.75;100.00
6853;BME280;3465;42.144;24.722;2022-12-10T14:57:26;145598.88;;;10.73;100.00
6853;BME280;3465;42.144;24.722;2022-12-10T15:00:03;145484.94;;;10.27;100.00
6853;BME280;3465;42.144;24.722;2022-12-10T15:02:35;145595.09;;;10.71;100.00
6853;BME280;3465;42.144;24.722;2022-12-10T15:05:02;145593.88;;;10.71;100.00
6853;BME280;3465;42.144;24.722;2022-12-10T15:07:33;145590.13;;;10.69;100.00
6853;BME280;3465;42.144;24.722;2022-12-10T15:10:00;145593.88;;;10.71;100.00
6853;BME280;3465;42.144;24.722;2022-12-10T15:12:44;145596.38;;;10.72;100.00
6853;BME280;3465;42.144;24.722;2022-12-10T15:15:34;145595.09;;;10.71;100.00